Mountain City, Tennessee
Current Conditions -  °F | °C
As of 11:35 PM on Saturday 20 Dec 2014 (Local Time) from KVJI Reporting Station
Haze Haze  
Wind Chill: 39°   Ceiling: 600
Heat Index: 39°   Visibility: 5mi
Dew Point: 38°   Wind: 0mph
Humidity: 95%   Direction: NA
Pressure: 30.2"   Gusts: NA
Location:  36.47°N, 81.8°W
Report Text: KVJI 210435Z AUTO 00000KT 5SM BR BKN006 OVC010 04/03 A3020 RMK AO2 T00410033
Loading
Personal Weather Stations






























Interactive Weather Map New forecast layout! Learn more

10-Day Weather Forecast

Advertisements
Track Severe Weather on mobile